CheckWX is a tool to help pilots better visualize weather data.  It is not intended as a substitute for an official pre-flight weather briefing.

06:15:13 UTC

EGGD TAF
Bristol International Airport
Bristol, United Kingdom
TAF EGGD 220450Z 2206/2306 13008KT CAVOK

Apr-22@
06:00 UTC

Apr-22 @ 06:00 UTC

Apr-23@
06:00 UTC

Apr-23 @ 06:00 UTC

TAF EGGD 220450Z 2206/2306 13008KT CAVOK
Wind
  • 130° at 8 KTS
Conditions
No significant weather
Cloud Levels
  • No significant clouds